createdAt,value
2018-03-17T00:00:36.772Z,12.20
2018-03-17T00:03:05.073Z,11.27
2018-03-17T00:05:33.345Z,12.17
2018-03-17T00:08:01.660Z,9.87
2018-03-17T00:10:29.933Z,10.95
2018-03-17T00:12:58.261Z,10.37
2018-03-17T00:15:26.549Z,12.50
2018-03-17T00:17:54.837Z,11.57
2018-03-17T00:20:23.106Z,12.13
2018-03-17T00:22:51.420Z,10.33
2018-03-17T00:25:19.732Z,12.43
2018-03-17T00:27:48.053Z,13.10
2018-03-17T00:30:16.386Z,11.95
2018-03-17T00:32:44.663Z,12.63
2018-03-17T00:35:13.047Z,12.50
2018-03-17T00:37:41.427Z,13.20
2018-03-17T00:40:09.735Z,13.13
2018-03-17T00:42:38.251Z,13.20
2018-03-17T00:45:06.560Z,14.50
2018-03-17T00:47:34.898Z,13.50
2018-03-17T00:50:03.341Z,14.50
2018-03-17T00:52:31.615Z,13.93
2018-03-17T00:54:59.951Z,14.30
2018-03-17T00:57:28.536Z,14.00
2018-03-17T00:59:58.395Z,13.30
2018-03-17T01:02:26.669Z,14.67
2018-03-17T01:04:54.999Z,14.70
2018-03-17T01:07:23.304Z,14.93
2018-03-17T01:09:51.858Z,15.40
2018-03-17T01:12:20.179Z,14.60
2018-03-17T01:14:48.470Z,14.90
2018-03-17T01:17:16.808Z,14.90
2018-03-17T01:19:45.244Z,22.40
2018-03-17T01:22:13.590Z,13.80
2018-03-17T01:24:42.115Z,15.70
2018-03-17T01:27:10.364Z,15.40
2018-03-17T01:29:38.700Z,14.50
2018-03-17T01:32:07.335Z,14.70
2018-03-17T01:34:35.616Z,14.98
2018-03-17T01:37:04.605Z,15.00
2018-03-17T01:39:32.861Z,14.80
2018-03-17T01:42:01.161Z,15.60
2018-03-17T01:44:29.425Z,15.70
2018-03-17T01:46:57.735Z,14.60
2018-03-17T01:49:26.017Z,15.37
2018-03-17T01:51:54.341Z,14.67
2018-03-17T01:54:34.300Z,15.27
2018-03-17T01:57:02.620Z,15.90
2018-03-17T01:59:30.922Z,15.60
2018-03-17T02:01:59.235Z,15.47
2018-03-17T02:04:27.504Z,15.67
2018-03-17T02:06:55.817Z,16.17
2018-03-17T02:09:24.105Z,15.30
2018-03-17T02:11:52.401Z,15.83
2018-03-17T02:14:21.040Z,15.07
2018-03-17T02:16:49.394Z,15.95
2018-03-17T02:19:17.672Z,17.10
2018-03-17T02:21:45.972Z,14.50
2018-03-17T02:24:14.276Z,17.10
2018-03-17T02:26:42.593Z,17.27
2018-03-17T02:29:10.866Z,16.90
2018-03-17T02:31:39.354Z,16.10
2018-03-17T02:34:07.623Z,16.27
2018-03-17T02:36:35.907Z,16.67
2018-03-17T02:39:04.513Z,16.10
2018-03-17T02:41:32.784Z,16.60
2018-03-17T02:44:01.100Z,14.90
2018-03-17T02:46:29.348Z,16.47
2018-03-17T02:48:57.653Z,16.10
2018-03-17T02:51:25.940Z,15.80
2018-03-17T02:53:54.253Z,14.77
2018-03-17T02:56:22.516Z,14.80
2018-03-17T02:58:50.829Z,14.70
2018-03-17T03:01:19.103Z,14.80
2018-03-17T03:03:47.418Z,15.03
2018-03-17T03:06:15.734Z,14.33
2018-03-17T03:08:44.065Z,14.53
2018-03-17T03:11:12.375Z,14.32
2018-03-17T03:13:40.683Z,14.40
2018-03-17T03:16:08.972Z,14.53
2018-03-17T03:18:37.257Z,14.23
2018-03-17T03:21:04.842Z,12.15
2018-03-17T03:23:32.937Z,14.87
2018-03-17T03:26:01.200Z,14.23
2018-03-17T03:28:29.504Z,15.20
2018-03-17T03:30:57.813Z,15.40
2018-03-17T03:33:26.099Z,14.70
2018-03-17T03:35:54.375Z,13.93
2018-03-17T03:38:22.675Z,14.97
2018-03-17T03:40:50.999Z,15.20
2018-03-17T03:43:19.320Z,13.77
2018-03-17T03:45:47.631Z,13.60
2018-03-17T03:48:17.293Z,14.23
2018-03-17T03:50:45.609Z,15.17
2018-03-17T03:53:13.891Z,14.60
2018-03-17T03:55:42.174Z,15.40
2018-03-17T03:58:10.819Z,16.33
2018-03-17T04:00:39.147Z,16.80
2018-03-17T04:03:07.410Z,15.97
2018-03-17T04:05:35.718Z,15.73
2018-03-17T04:08:04.484Z,17.02
2018-03-17T04:10:32.816Z,15.73
2018-03-17T04:13:01.095Z,16.80
2018-03-17T04:15:30.011Z,17.40
2018-03-17T04:17:58.293Z,15.87
2018-03-17T04:20:26.637Z,16.73
2018-03-17T04:22:54.943Z,16.13
2018-03-17T04:25:23.298Z,16.40
2018-03-17T04:27:51.632Z,16.90
2018-03-17T04:30:19.915Z,15.43
2018-03-17T04:32:48.226Z,17.37
2018-03-17T04:35:16.844Z,16.58
2018-03-17T04:37:45.163Z,16.57
2018-03-17T04:40:13.464Z,17.17
2018-03-17T04:42:41.775Z,16.70
2018-03-17T04:45:10.044Z,16.23
2018-03-17T04:47:38.341Z,16.27
2018-03-17T04:50:06.658Z,16.50
2018-03-17T04:52:34.981Z,17.63
2018-03-17T04:55:04.164Z,16.57
2018-03-17T04:57:32.464Z,17.87
2018-03-17T05:00:00.776Z,18.02
2018-03-17T05:02:29.055Z,17.77
2018-03-17T05:04:57.672Z,17.83
2018-03-17T05:07:25.958Z,17.20
2018-03-17T05:09:54.252Z,17.55
2018-03-17T05:12:22.763Z,18.60
2018-03-17T05:14:51.050Z,17.57
2018-03-17T05:17:19.366Z,18.50
2018-03-17T05:19:47.654Z,18.90
2018-03-17T05:22:15.953Z,14.52
2018-03-17T05:24:44.212Z,17.90
2018-03-17T05:27:12.504Z,18.70
2018-03-17T05:29:40.808Z,18.33
2018-03-17T05:32:09.972Z,17.42
2018-03-17T05:34:38.273Z,18.10
2018-03-17T05:37:06.532Z,18.97
2018-03-17T05:39:34.835Z,20.03
2018-03-17T05:42:03.113Z,18.83
2018-03-17T05:44:31.403Z,18.87
2018-03-17T05:46:59.682Z,18.03
2018-03-17T05:49:28.017Z,19.67
2018-03-17T05:51:56.287Z,17.77
2018-03-17T05:54:24.641Z,19.40
2018-03-17T05:56:53.561Z,18.83
2018-03-17T05:59:21.858Z,18.10
2018-03-17T06:01:51.051Z,17.57
2018-03-17T06:04:19.400Z,18.30
2018-03-17T06:06:47.676Z,17.93
2018-03-17T06:09:15.972Z,16.00
2018-03-17T06:11:44.239Z,18.17
2018-03-17T06:14:12.565Z,17.70
2018-03-17T06:16:40.864Z,18.63
2018-03-17T06:19:09.162Z,17.90
2018-03-17T06:21:37.445Z,17.73
2018-03-17T06:24:05.744Z,18.15
2018-03-17T06:26:34.031Z,19.03
2018-03-17T06:29:02.342Z,18.60
2018-03-17T06:31:30.631Z,19.57
2018-03-17T06:33:58.939Z,17.10
2018-03-17T06:36:27.228Z,18.37
2018-03-17T06:38:55.555Z,18.50
2018-03-17T06:41:23.877Z,18.85
2018-03-17T06:43:52.148Z,19.10
2018-03-17T06:46:20.448Z,17.95
2018-03-17T06:48:48.750Z,19.00
2018-03-17T06:51:17.078Z,19.35
2018-03-17T06:53:46.168Z,17.97
2018-03-17T06:56:14.500Z,13.65
2018-03-17T06:58:42.744Z,18.40
2018-03-17T07:01:11.067Z,18.43
2018-03-17T07:03:39.371Z,16.77
2018-03-17T07:06:07.677Z,16.80
2018-03-17T07:08:36.549Z,18.60
2018-03-17T07:11:05.893Z,17.40
2018-03-17T07:13:34.149Z,17.80
2018-03-17T07:16:02.507Z,15.80
2018-03-17T07:18:30.783Z,17.83
2018-03-17T07:20:59.101Z,17.43
2018-03-17T07:23:27.508Z,18.83
2018-03-17T07:25:55.767Z,17.37
2018-03-17T07:28:24.092Z,18.63
2018-03-17T07:30:52.379Z,13.97
2018-03-17T07:33:20.706Z,16.45
2018-03-17T07:35:49.039Z,17.70
2018-03-17T07:38:17.253Z,17.92
2018-03-17T07:40:45.618Z,17.13
2018-03-17T07:43:13.938Z,17.60
2018-03-17T07:45:42.247Z,15.90
2018-03-17T07:48:10.547Z,18.00
2018-03-17T07:50:38.880Z,17.37
2018-03-17T07:53:07.173Z,15.90
2018-03-17T07:55:35.488Z,16.80
2018-03-17T07:58:03.801Z,17.20
2018-03-17T08:00:32.147Z,17.30
2018-03-17T08:03:00.490Z,17.67
2018-03-17T08:05:28.769Z,16.83
2018-03-17T08:07:57.478Z,17.70
2018-03-17T08:10:25.729Z,16.23
2018-03-17T08:12:54.042Z,17.87
2018-03-17T08:15:22.385Z,17.03
2018-03-17T08:17:50.676Z,18.40
2018-03-17T08:20:18.952Z,15.10
2018-03-17T08:22:47.278Z,16.33
2018-03-17T08:25:15.537Z,14.65
2018-03-17T08:27:43.854Z,16.67
2018-03-17T08:30:12.187Z,15.77
2018-03-17T08:32:40.907Z,17.30
2018-03-17T08:35:09.215Z,15.00
2018-03-17T08:37:37.492Z,15.63
2018-03-17T08:40:05.818Z,15.83
2018-03-17T08:42:34.097Z,15.50
2018-03-17T08:45:02.409Z,15.83
2018-03-17T08:47:30.712Z,15.77
2018-03-17T08:49:59.029Z,15.43
2018-03-17T08:52:28.151Z,16.17
2018-03-17T08:54:57.314Z,16.20
2018-03-17T08:57:25.713Z,15.70
2018-03-17T08:59:54.775Z,16.40
2018-03-17T09:02:23.137Z,13.97
2018-03-17T09:04:51.488Z,14.30
2018-03-17T09:07:21.120Z,14.53
2018-03-17T09:09:50.425Z,15.07
2018-03-17T09:12:19.385Z,14.73
2018-03-17T09:14:47.800Z,14.40
2018-03-17T09:17:16.149Z,13.62
2018-03-17T09:19:44.752Z,15.45
2018-03-17T09:22:13.006Z,15.33
2018-03-17T09:24:41.312Z,15.40
2018-03-17T09:27:09.590Z,15.80
2018-03-17T09:29:37.946Z,14.90
2018-03-17T09:32:06.920Z,13.23
2018-03-17T09:34:35.244Z,14.90
2018-03-17T09:37:04.500Z,15.57
2018-03-17T09:39:32.777Z,14.70
2018-03-17T09:42:01.169Z,15.57
2018-03-17T09:44:29.561Z,14.90
2018-03-17T09:46:58.550Z,13.83
2018-03-17T09:49:26.828Z,10.47
2018-03-17T09:51:56.773Z,14.65
2018-03-17T09:54:25.076Z,15.17
2018-03-17T09:56:54.110Z,14.63
2018-03-17T09:59:22.398Z,14.23
2018-03-17T10:01:50.714Z,14.90
2018-03-17T10:04:19.034Z,14.85
2018-03-17T10:06:47.354Z,14.02
2018-03-17T10:09:15.711Z,13.82
2018-03-17T10:11:44.184Z,13.90
2018-03-17T10:14:12.484Z,13.37
2018-03-17T10:16:41.447Z,13.95
2018-03-17T10:19:09.720Z,14.75
2018-03-17T10:21:38.433Z,13.43
2018-03-17T10:24:06.829Z,13.30
2018-03-17T10:26:35.154Z,14.25
2018-03-17T10:29:03.455Z,13.50
2018-03-17T10:31:31.864Z,14.40
2018-03-17T10:34:00.233Z,13.55
2018-03-17T10:36:28.568Z,13.77
2018-03-17T10:38:56.830Z,13.68
2018-03-17T10:41:25.112Z,13.43
2018-03-17T10:43:53.434Z,13.40
2018-03-17T10:46:21.784Z,12.88
2018-03-17T10:48:50.131Z,13.50
2018-03-17T10:51:18.439Z,12.63
2018-03-17T10:53:46.735Z,11.73
2018-03-17T10:56:15.016Z,12.07
2018-03-17T10:58:43.340Z,14.00
2018-03-17T11:01:17.334Z,12.47
2018-03-17T11:03:45.668Z,12.90
2018-03-17T11:06:13.964Z,13.10
2018-03-17T11:08:42.224Z,11.17
2018-03-17T11:11:10.523Z,12.57
2018-03-17T11:13:39.896Z,11.90
2018-03-17T11:16:08.159Z,13.13
2018-03-17T11:18:36.500Z,12.52
2018-03-17T11:21:04.912Z,12.90
2018-03-17T11:23:33.676Z,12.57
2018-03-17T11:26:01.957Z,13.67
2018-03-17T11:28:30.289Z,11.30
2018-03-17T11:30:58.527Z,11.47
2018-03-17T11:33:29.032Z,11.50
2018-03-17T11:35:57.401Z,12.47
2018-03-17T11:38:25.704Z,11.23
2018-03-17T11:40:54.004Z,12.43
2018-03-17T11:43:22.270Z,12.27
2018-03-17T11:45:51.369Z,11.07
2018-03-17T11:48:19.813Z,10.90
2018-03-17T11:50:48.132Z,11.47
2018-03-17T11:53:16.511Z,10.60
2018-03-17T11:55:45.067Z,11.10
2018-03-17T11:58:13.363Z,11.63
2018-03-17T12:00:41.692Z,12.20
2018-03-17T12:03:10.011Z,10.57
2018-03-17T12:05:38.297Z,12.93
2018-03-17T12:08:06.591Z,10.93
2018-03-17T12:10:34.906Z,11.70
2018-03-17T12:13:03.289Z,11.23
2018-03-17T12:15:31.747Z,10.30
2018-03-17T12:18:00.665Z,11.13
2018-03-17T12:20:28.993Z,10.20
2018-03-17T12:22:57.263Z,12.70
2018-03-17T12:25:25.552Z,11.90
2018-03-17T12:27:53.859Z,11.03
2018-03-17T12:30:22.699Z,11.65
2018-03-17T12:32:50.982Z,12.23
2018-03-17T12:35:19.270Z,9.30
2018-03-17T12:37:47.920Z,10.97
2018-03-17T12:40:16.257Z,11.77
2018-03-17T12:42:44.493Z,10.97
2018-03-17T12:45:12.815Z,11.03
2018-03-17T12:47:41.129Z,11.50
2018-03-17T12:50:09.429Z,9.10
2018-03-17T12:52:37.744Z,10.73
2018-03-17T12:55:06.044Z,10.50
2018-03-17T12:57:34.365Z,10.90
2018-03-17T13:00:02.673Z,11.37
2018-03-17T13:02:30.973Z,9.63
2018-03-17T13:04:59.308Z,12.00
2018-03-17T13:07:28.829Z,11.67
2018-03-17T13:09:57.068Z,11.20
2018-03-17T13:12:25.344Z,11.10
2018-03-17T13:14:53.762Z,14.30
2018-03-17T13:17:22.139Z,11.97
2018-03-17T13:19:50.422Z,10.47
2018-03-17T13:22:18.728Z,10.93
2018-03-17T13:24:47.027Z,11.07
2018-03-17T13:27:27.017Z,10.00
2018-03-17T13:29:55.377Z,10.47
2018-03-17T13:32:35.431Z,10.00
2018-03-17T13:35:03.727Z,10.07
2018-03-17T13:37:38.425Z,9.83
2018-03-17T13:43:05.721Z,11.00
2018-03-17T13:45:34.012Z,10.47
2018-03-17T13:48:02.334Z,10.17
2018-03-17T13:50:30.622Z,9.70
2018-03-17T13:52:58.877Z,9.30
2018-03-17T13:55:27.178Z,8.60
2018-03-17T13:57:55.486Z,10.43
2018-03-17T14:00:23.819Z,10.90
2018-03-17T14:02:52.086Z,9.77
2018-03-17T14:05:20.854Z,9.00
2018-03-17T14:07:49.110Z,10.40
2018-03-17T14:10:17.450Z,10.07
2018-03-17T14:12:45.716Z,7.90
2018-03-17T14:15:15.333Z,9.87
2018-03-17T14:17:43.784Z,10.40
2018-03-17T14:20:12.125Z,10.03
2018-03-17T14:22:41.532Z,10.20
2018-03-17T14:25:10.112Z,8.73
2018-03-17T14:27:38.527Z,10.70
2018-03-17T14:30:07.701Z,10.00
2018-03-17T14:32:35.990Z,10.60
2018-03-17T14:35:05.600Z,10.13
2018-03-17T14:37:33.890Z,10.40
2018-03-17T14:40:02.223Z,9.43
2018-03-17T14:42:30.493Z,9.97
2018-03-17T14:44:58.884Z,9.27
2018-03-17T14:47:27.223Z,9.50
2018-03-17T14:49:55.572Z,8.73
2018-03-17T14:52:24.035Z,9.75
2018-03-17T14:54:52.301Z,15.20
2018-03-17T14:57:20.621Z,8.77
2018-03-17T14:59:49.064Z,7.23
2018-03-17T15:02:17.430Z,9.80
2018-03-17T15:04:45.704Z,8.43
2018-03-17T15:07:13.996Z,8.27
2018-03-17T15:09:42.313Z,10.40
2018-03-17T15:12:10.668Z,9.43
2018-03-17T15:14:39.461Z,9.60
2018-03-17T15:17:07.824Z,8.77
2018-03-17T15:19:36.096Z,9.70
2018-03-17T15:22:04.497Z,10.27
2018-03-17T15:24:32.739Z,10.10
2018-03-17T15:27:01.124Z,10.20
2018-03-17T15:29:29.486Z,10.40
2018-03-17T15:31:57.795Z,10.50
2018-03-17T15:34:26.107Z,9.70
2018-03-17T15:36:54.404Z,10.40
2018-03-17T15:39:22.820Z,9.07
2018-03-17T15:41:51.420Z,7.60
2018-03-17T15:44:19.772Z,9.10
2018-03-17T15:46:48.021Z,5.50
2018-03-17T15:49:16.360Z,10.18
2018-03-17T15:51:44.632Z,9.77
2018-03-17T15:54:12.999Z,9.13
2018-03-17T15:56:41.273Z,10.40
2018-03-17T15:59:09.561Z,8.65
2018-03-17T16:01:37.850Z,10.73
2018-03-17T16:04:06.217Z,8.40
2018-03-17T16:06:34.461Z,9.60
2018-03-17T16:09:02.775Z,10.10
2018-03-17T16:11:31.064Z,8.65
2018-03-17T16:13:59.530Z,9.90
2018-03-17T16:16:27.817Z,10.33
2018-03-17T16:18:56.127Z,9.33
2018-03-17T16:21:24.464Z,9.90
2018-03-17T16:23:52.749Z,9.53
2018-03-17T16:26:21.034Z,9.97
2018-03-17T16:28:49.345Z,10.40
2018-03-17T16:31:17.761Z,10.43
2018-03-17T16:33:46.116Z,10.63
2018-03-17T16:36:14.440Z,10.87
2018-03-17T16:38:42.755Z,10.90
2018-03-17T16:41:11.065Z,9.80
2018-03-17T16:43:39.484Z,7.67
2018-03-17T16:46:07.845Z,9.70
2018-03-17T16:48:36.111Z,8.37
2018-03-17T16:51:05.554Z,9.27
2018-03-17T16:53:33.821Z,10.40
2018-03-17T16:56:02.145Z,6.83
2018-03-17T16:58:30.413Z,9.87
2018-03-17T17:00:58.724Z,10.47
2018-03-17T17:03:27.405Z,10.30
2018-03-17T17:05:55.752Z,10.20
2018-03-17T17:08:24.068Z,8.93
2018-03-17T17:10:52.609Z,11.00
2018-03-17T17:13:21.458Z,9.15
2018-03-17T17:15:50.616Z,8.90
2018-03-17T17:18:18.883Z,8.57
2018-03-17T17:20:47.235Z,10.00
2018-03-17T17:23:16.470Z,9.40
2018-03-17T17:25:44.797Z,9.90
2018-03-17T17:28:13.128Z,8.68
2018-03-17T17:30:41.457Z,9.93
2018-03-17T17:33:09.745Z,9.50
2018-03-17T17:35:38.357Z,11.00
2018-03-17T17:38:06.620Z,9.87
2018-03-17T17:40:34.981Z,10.27
2018-03-17T17:43:03.645Z,8.80
2018-03-17T17:45:31.958Z,11.50
2018-03-17T17:48:03.291Z,10.37
2018-03-17T17:50:31.562Z,11.30
2018-03-17T17:52:59.940Z,11.18
2018-03-17T17:55:29.160Z,10.43
2018-03-17T17:57:57.481Z,10.95
2018-03-17T18:00:25.796Z,9.73
2018-03-17T18:02:54.125Z,11.12
2018-03-17T18:05:22.553Z,10.73
2018-03-17T18:07:50.869Z,11.17
2018-03-17T18:10:19.145Z,11.37
2018-03-17T18:12:47.527Z,11.27
2018-03-17T18:15:15.824Z,10.97
2018-03-17T18:17:44.267Z,9.70
2018-03-17T18:20:12.544Z,11.60
2018-03-17T18:22:40.940Z,11.02
2018-03-17T18:25:09.296Z,11.50
2018-03-17T18:27:37.629Z,11.77
2018-03-17T18:30:05.869Z,9.27
2018-03-17T18:32:34.192Z,7.97
2018-03-17T18:35:03.416Z,10.30
2018-03-17T18:37:31.673Z,10.47
2018-03-17T18:40:00.292Z,10.47
2018-03-17T18:42:28.540Z,11.45
2018-03-17T18:44:56.910Z,11.10
2018-03-17T18:47:25.625Z,11.10
2018-03-17T18:49:54.017Z,10.60
2018-03-17T18:52:22.297Z,11.30
2018-03-17T18:54:51.509Z,8.77
2018-03-17T18:57:19.932Z,10.67
2018-03-17T18:59:48.251Z,10.03
2018-03-17T19:02:16.610Z,9.60
2018-03-17T19:04:44.887Z,8.70
2018-03-17T19:07:13.202Z,10.63
2018-03-17T19:09:41.506Z,11.00
2018-03-17T19:12:10.425Z,10.37
2018-03-17T19:14:38.809Z,10.80
2018-03-17T19:17:07.100Z,8.70
2018-03-17T19:19:35.452Z,10.07
2018-03-17T19:22:03.757Z,11.33
2018-03-17T19:24:32.028Z,37.87
2018-03-17T19:27:00.347Z,9.50
2018-03-17T19:29:28.665Z,9.83
2018-03-17T19:31:57.286Z,10.30
2018-03-17T19:34:25.569Z,10.23
2018-03-17T19:36:53.905Z,10.57
2018-03-17T19:39:22.360Z,10.15
2018-03-17T19:41:51.458Z,9.97
2018-03-17T19:44:19.794Z,7.10
2018-03-17T19:46:48.035Z,10.83
2018-03-17T19:49:16.320Z,11.10
2018-03-17T19:51:44.630Z,9.97
2018-03-17T19:54:12.956Z,10.07
2018-03-17T19:56:41.234Z,9.80
2018-03-17T19:59:10.324Z,10.02
2018-03-17T20:01:38.633Z,9.70
2018-03-17T20:04:06.936Z,9.43
2018-03-17T20:06:35.234Z,10.23
2018-03-17T20:09:03.546Z,9.30
2018-03-17T20:11:31.835Z,10.60
2018-03-17T20:14:00.110Z,10.60
2018-03-17T20:16:28.640Z,10.40
2018-03-17T20:18:57.154Z,10.77
2018-03-17T20:21:25.733Z,10.57
2018-03-17T20:23:54.039Z,10.20
2018-03-17T20:26:22.401Z,9.47
2018-03-17T20:28:50.745Z,9.83
2018-03-17T20:31:19.081Z,11.33
2018-03-17T20:33:47.383Z,11.18
2018-03-17T20:36:15.856Z,9.82
2018-03-17T20:38:44.139Z,9.55
2018-03-17T20:41:12.432Z,9.93
2018-03-17T20:43:40.736Z,9.00
2018-03-17T20:46:09.057Z,9.13
2018-03-17T20:48:38.632Z,9.32
2018-03-17T20:51:07.626Z,9.77
2018-03-17T20:53:36.285Z,9.70
2018-03-17T20:56:05.388Z,9.20
2018-03-17T20:58:33.664Z,8.97
2018-03-17T21:01:02.884Z,9.67
2018-03-17T21:03:31.223Z,10.10
2018-03-17T21:05:59.574Z,9.43
2018-03-17T21:08:28.080Z,8.43
2018-03-17T21:10:56.365Z,8.10
2018-03-17T21:13:24.689Z,8.95
2018-03-17T21:15:53.008Z,9.97
2018-03-17T21:18:21.301Z,9.57
2018-03-17T21:20:49.596Z,9.50
2018-03-17T21:23:17.929Z,9.32
2018-03-17T21:25:46.136Z,9.80
2018-03-17T21:28:14.500Z,9.47
2018-03-17T21:30:42.804Z,9.53
2018-03-17T21:33:11.342Z,9.65
2018-03-17T21:35:40.553Z,8.97
2018-03-17T21:38:08.902Z,8.95
2018-03-17T21:40:37.145Z,8.90
2018-03-17T21:43:05.609Z,9.03
2018-03-17T21:45:33.895Z,10.50
2018-03-17T21:48:02.197Z,10.40
2018-03-17T21:50:30.532Z,9.10
2018-03-17T21:52:58.850Z,8.73
2018-03-17T21:55:27.104Z,9.10
2018-03-17T21:57:55.396Z,9.40
2018-03-17T22:00:23.723Z,9.30
2018-03-17T22:02:52.108Z,8.30
2018-03-17T22:05:20.385Z,5.70
2018-03-17T22:07:48.702Z,9.60
2018-03-17T22:10:17.000Z,8.73
2018-03-17T22:12:45.340Z,9.50
2018-03-17T22:15:13.628Z,9.20
2018-03-17T22:17:41.928Z,9.90
2018-03-17T22:20:10.219Z,9.17
2018-03-17T22:22:38.515Z,6.83
2018-03-17T22:25:06.820Z,7.10
2018-03-17T22:27:35.132Z,7.90
2018-03-17T22:30:03.460Z,9.07
2018-03-17T22:32:31.805Z,9.40
2018-03-17T22:35:00.110Z,9.20
2018-03-17T22:37:29.312Z,9.60
2018-03-17T22:39:57.612Z,10.50
2018-03-17T22:42:25.880Z,9.38
2018-03-17T22:44:54.185Z,10.00
2018-03-17T22:47:22.457Z,9.35
2018-03-17T22:49:50.788Z,8.57
2018-03-17T22:52:19.119Z,8.97
2018-03-17T22:54:47.368Z,9.27
2018-03-17T22:57:15.636Z,9.77
2018-03-17T22:59:43.965Z,10.00
2018-03-17T23:02:12.262Z,9.57
2018-03-17T23:04:40.565Z,10.40
2018-03-17T23:07:08.869Z,9.65
2018-03-17T23:09:37.188Z,9.70
2018-03-17T23:12:05.440Z,9.80
2018-03-17T23:14:33.695Z,9.47
2018-03-17T23:17:02.044Z,9.40
2018-03-17T23:19:30.349Z,9.27
2018-03-17T23:21:58.683Z,10.20
2018-03-17T23:24:27.210Z,9.40
2018-03-17T23:26:55.465Z,9.30
2018-03-17T23:29:23.992Z,8.80
2018-03-17T23:31:52.327Z,9.93
2018-03-17T23:34:20.627Z,9.68
2018-03-17T23:36:49.153Z,9.60
2018-03-17T23:39:17.462Z,9.77
2018-03-17T23:41:45.752Z,10.23
2018-03-17T23:44:14.066Z,10.05
2018-03-17T23:46:42.407Z,10.13
2018-03-17T23:49:10.744Z,9.93
2018-03-17T23:51:39.936Z,11.00
2018-03-17T23:54:08.247Z,10.13
2018-03-17T23:56:36.531Z,9.97
2018-03-17T23:59:04.923Z,10.13
